ADDS METAR Data INFO
IDs: Format: Raw Decoded Include TAF

Data at: 0350 UTC 18 Oct 2017

METAR for:KMCO (Orlando Intl, FL, US)
Text:KMCO 180344Z 01015KT 10SM SCT012 BKN021 BKN026 OVC250 23/22 A3008 RMK AO2 T02280217 $
Temperature: 22.8°C ( 73°F)
Dewpoint: 21.7°C ( 71°F) [RH = 94%]
Pressure (altimeter):30.08 inches Hg (1018.7 mb)
Winds:from the N (10 degrees) at 17 MPH (15 knots; 7.7 m/s)
Visibility:10 or more sm (16+ km)
Ceiling:2100 feet AGL
Clouds: scattered clouds at 1200 feet AGL, broken clouds at 2100 feet AGL, broken clouds at 2600 feet AGL, overcast cloud deck at 25000 feet AGL
QC Flag:SOME DATA ABOVE MAY BE INACCURATE!!!"$" is an indication the sensor requires maintenance.